Auburn, Massachusetts
Current Conditions -  °F | °C
As of 5:54 PM on Saturday 22 Nov 2014 (Local Time) from KORH Reporting Station
Overcast Overcast  
Wind Chill: 25°   Ceiling: 5500
Heat Index: 35°   Visibility: 10mi
Dew Point: 10°   Wind: 16mph
Humidity: 35%   Direction: 230°SW
Pressure: 30.07"   Gusts: NA
Location:  42.18°N, 71.85°W
Report Text: KORH 222254Z 23014KT 10SM SCT042 BKN055 OVC095 02/M12 A3007 RMK AO2 PK WND 23027/2219 SLP198 T00171122
Loading
Personal Weather Stations






























Interactive Weather Map New forecast layout! Learn more

10-Day Weather Forecast

Advertisements
Track Severe Weather on mobile